sensor_id;sensor_type;location;lat;lon;timestamp;temperature;humidity
19214;DHT22;9741;51.020;5.304;2023-12-20T00:00:36;8.50;75.60
19214;DHT22;9741;51.020;5.304;2023-12-20T00:03:07;8.40;75.60
19214;DHT22;9741;51.020;5.304;2023-12-20T00:05:49;8.40;75.50
19214;DHT22;9741;51.020;5.304;2023-12-20T00:08:19;8.30;75.30
19214;DHT22;9741;51.020;5.304;2023-12-20T00:10:50;8.20;75.10
19214;DHT22;9741;51.020;5.304;2023-12-20T00:13:19;8.20;75.30
19214;DHT22;9741;51.020;5.304;2023-12-20T00:15:49;8.10;75.40
19214;DHT22;9741;51.020;5.304;2023-12-20T00:18:20;8.10;75.50
19214;DHT22;9741;51.020;5.304;2023-12-20T00:20:54;8.10;75.60
19214;DHT22;9741;51.020;5.304;2023-12-20T00:23:22;8.10;75.70
19214;DHT22;9741;51.020;5.304;2023-12-20T00:25:51;8.10;75.70
19214;DHT22;9741;51.020;5.304;2023-12-20T00:28:18;8.10;75.50
19214;DHT22;9741;51.020;5.304;2023-12-20T00:30:49;8.00;75.30
19214;DHT22;9741;51.020;5.304;2023-12-20T00:33:19;8.00;75.40
19214;DHT22;9741;51.020;5.304;2023-12-20T00:36:02;7.90;75.20
19214;DHT22;9741;51.020;5.304;2023-12-20T00:38:35;7.90;75.20
19214;DHT22;9741;51.020;5.304;2023-12-20T00:41:03;7.80;75.20
19214;DHT22;9741;51.020;5.304;2023-12-20T00:43:33;7.80;75.50
19214;DHT22;9741;51.020;5.304;2023-12-20T00:46:03;7.80;75.50
19214;DHT22;9741;51.020;5.304;2023-12-20T00:48:31;7.80;75.50
19214;DHT22;9741;51.020;5.304;2023-12-20T00:51:03;7.80;75.50
19214;DHT22;9741;51.020;5.304;2023-12-20T00:53:33;7.70;75.30
19214;DHT22;9741;51.020;5.304;2023-12-20T00:56:16;7.70;75.10
19214;DHT22;9741;51.020;5.304;2023-12-20T00:58:45;7.60;75.10
19214;DHT22;9741;51.020;5.304;2023-12-20T01:01:19;7.50;75.00
19214;DHT22;9741;51.020;5.304;2023-12-20T01:04:02;7.50;75.10
19214;DHT22;9741;51.020;5.304;2023-12-20T01:06:35;7.40;74.90
19214;DHT22;9741;51.020;5.304;2023-12-20T01:09:03;7.30;74.80
19214;DHT22;9741;51.020;5.304;2023-12-20T01:11:30;7.20;74.70
19214;DHT22;9741;51.020;5.304;2023-12-20T01:14:11;7.10;74.80
19214;DHT22;9741;51.020;5.304;2023-12-20T01:16:39;7.10;75.10
19214;DHT22;9741;51.020;5.304;2023-12-20T01:19:10;7.10;75.40
19214;DHT22;9741;51.020;5.304;2023-12-20T01:21:42;7.20;75.60
19214;DHT22;9741;51.020;5.304;2023-12-20T01:24:12;7.20;75.60
19214;DHT22;9741;51.020;5.304;2023-12-20T01:26:55;7.20;75.40
19214;DHT22;9741;51.020;5.304;2023-12-20T01:29:30;7.20;75.20
19214;DHT22;9741;51.020;5.304;2023-12-20T01:31:59;7.10;75.00
19214;DHT22;9741;51.020;5.304;2023-12-20T01:34:27;7.00;74.90
19214;DHT22;9741;51.020;5.304;2023-12-20T01:36:58;6.90;74.80
19214;DHT22;9741;51.020;5.304;2023-12-20T01:39:29;6.90;74.80
19214;DHT22;9741;51.020;5.304;2023-12-20T01:41:57;6.80;74.80
19214;DHT22;9741;51.020;5.304;2023-12-20T01:44:25;6.70;74.80
19214;DHT22;9741;51.020;5.304;2023-12-20T01:46:55;6.70;74.80
19214;DHT22;9741;51.020;5.304;2023-12-20T01:49:26;6.60;74.80
19214;DHT22;9741;51.020;5.304;2023-12-20T01:52:01;6.50;74.80
19214;DHT22;9741;51.020;5.304;2023-12-20T01:54:29;6.50;74.90
19214;DHT22;9741;51.020;5.304;2023-12-20T01:57:00;6.50;75.10
19214;DHT22;9741;51.020;5.304;2023-12-20T01:59:38;6.50;75.30
19214;DHT22;9741;51.020;5.304;2023-12-20T02:02:10;6.50;75.30
19214;DHT22;9741;51.020;5.304;2023-12-20T02:04:46;6.50;75.30
19214;DHT22;9741;51.020;5.304;2023-12-20T02:07:23;6.50;75.30
19214;DHT22;9741;51.020;5.304;2023-12-20T02:09:52;6.40;75.10
19214;DHT22;9741;51.020;5.304;2023-12-20T02:12:22;6.40;75.10
19214;DHT22;9741;51.020;5.304;2023-12-20T02:14:58;6.30;74.90
19214;DHT22;9741;51.020;5.304;2023-12-20T02:17:32;6.30;75.00
19214;DHT22;9741;51.020;5.304;2023-12-20T02:20:00;6.30;75.10
19214;DHT22;9741;51.020;5.304;2023-12-20T02:22:44;6.20;75.00
19214;DHT22;9741;51.020;5.304;2023-12-20T02:25:14;6.20;75.10
19214;DHT22;9741;51.020;5.304;2023-12-20T02:27:50;6.20;75.10
19214;DHT22;9741;51.020;5.304;2023-12-20T02:30:20;6.20;75.20
19214;DHT22;9741;51.020;5.304;2023-12-20T02:32:50;6.10;75.10
19214;DHT22;9741;51.020;5.304;2023-12-20T02:35:26;6.10;75.10
19214;DHT22;9741;51.020;5.304;2023-12-20T02:38:03;6.10;75.10
19214;DHT22;9741;51.020;5.304;2023-12-20T02:40:34;6.00;75.00
19214;DHT22;9741;51.020;5.304;2023-12-20T02:43:04;6.00;75.00
19214;DHT22;9741;51.020;5.304;2023-12-20T02:45:39;6.00;75.10
19214;DHT22;9741;51.020;5.304;2023-12-20T02:48:10;6.00;75.10
19214;DHT22;9741;51.020;5.304;2023-12-20T02:50:41;6.00;75.10
19214;DHT22;9741;51.020;5.304;2023-12-20T02:53:09;5.90;75.10
19214;DHT22;9741;51.020;5.304;2023-12-20T02:55:42;5.90;75.20
19214;DHT22;9741;51.020;5.304;2023-12-20T02:58:18;6.00;75.40
19214;DHT22;9741;51.020;5.304;2023-12-20T03:00:48;6.00;75.50
19214;DHT22;9741;51.020;5.304;2023-12-20T03:03:15;6.10;75.70
19214;DHT22;9741;51.020;5.304;2023-12-20T03:05:47;6.10;75.80
19214;DHT22;9741;51.020;5.304;2023-12-20T03:08:27;6.20;75.90
19214;DHT22;9741;51.020;5.304;2023-12-20T03:10:56;6.30;76.00
19214;DHT22;9741;51.020;5.304;2023-12-20T03:13:29;6.40;76.10
19214;DHT22;9741;51.020;5.304;2023-12-20T03:15:56;6.50;76.10
19214;DHT22;9741;51.020;5.304;2023-12-20T03:18:27;6.60;76.10
19214;DHT22;9741;51.020;5.304;2023-12-20T03:21:06;6.60;76.00
19214;DHT22;9741;51.020;5.304;2023-12-20T03:23:37;6.70;76.40
19214;DHT22;9741;51.020;5.304;2023-12-20T03:26:11;6.80;75.90
19214;DHT22;9741;51.020;5.304;2023-12-20T03:28:41;6.80;75.80
19214;DHT22;9741;51.020;5.304;2023-12-20T03:31:11;6.80;75.80
19214;DHT22;9741;51.020;5.304;2023-12-20T03:33:41;6.90;75.90
19214;DHT22;9741;51.020;5.304;2023-12-20T03:36:11;7.00;76.00
19214;DHT22;9741;51.020;5.304;2023-12-20T03:38:47;7.00;75.90
19214;DHT22;9741;51.020;5.304;2023-12-20T03:41:15;7.00;75.80
19214;DHT22;9741;51.020;5.304;2023-12-20T03:43:45;7.10;75.90
19214;DHT22;9741;51.020;5.304;2023-12-20T03:46:15;7.10;75.80
19214;DHT22;9741;51.020;5.304;2023-12-20T03:48:57;7.20;75.90
19214;DHT22;9741;51.020;5.304;2023-12-20T03:51:34;7.20;75.80
19214;DHT22;9741;51.020;5.304;2023-12-20T03:54:10;7.20;75.80
19214;DHT22;9741;51.020;5.304;2023-12-20T03:56:46;7.20;75.80
19214;DHT22;9741;51.020;5.304;2023-12-20T03:59:17;7.30;75.80
19214;DHT22;9741;51.020;5.304;2023-12-20T04:01:47;7.30;75.80
19214;DHT22;9741;51.020;5.304;2023-12-20T04:04:31;7.30;75.70
19214;DHT22;9741;51.020;5.304;2023-12-20T04:07:06;7.30;75.80
19214;DHT22;9741;51.020;5.304;2023-12-20T04:09:50;7.30;75.80
19214;DHT22;9741;51.020;5.304;2023-12-20T04:12:21;7.40;76.00
19214;DHT22;9741;51.020;5.304;2023-12-20T04:14:48;7.40;75.90
19214;DHT22;9741;51.020;5.304;2023-12-20T04:17:20;7.40;75.90
19214;DHT22;9741;51.020;5.304;2023-12-20T04:19:50;7.40;75.90
19214;DHT22;9741;51.020;5.304;2023-12-20T04:22:20;7.50;76.00
19214;DHT22;9741;51.020;5.304;2023-12-20T04:24:56;7.50;75.90
19214;DHT22;9741;51.020;5.304;2023-12-20T04:27:27;7.50;75.80
19214;DHT22;9741;51.020;5.304;2023-12-20T04:29:55;7.50;75.70
19214;DHT22;9741;51.020;5.304;2023-12-20T04:32:25;7.50;75.60
19214;DHT22;9741;51.020;5.304;2023-12-20T04:34:52;7.50;75.60
19214;DHT22;9741;51.020;5.304;2023-12-20T04:37:25;7.50;75.70
19214;DHT22;9741;51.020;5.304;2023-12-20T04:39:56;7.50;75.70
19214;DHT22;9741;51.020;5.304;2023-12-20T04:42:24;7.50;75.80
19214;DHT22;9741;51.020;5.304;2023-12-20T04:44:54;7.50;75.80
19214;DHT22;9741;51.020;5.304;2023-12-20T04:47:24;7.50;75.70
19214;DHT22;9741;51.020;5.304;2023-12-20T04:49:53;7.50;75.60
19214;DHT22;9741;51.020;5.304;2023-12-20T04:52:25;7.40;75.40
19214;DHT22;9741;51.020;5.304;2023-12-20T04:54:55;7.30;75.30
19214;DHT22;9741;51.020;5.304;2023-12-20T04:57:30;7.30;75.50
19214;DHT22;9741;51.020;5.304;2023-12-20T04:59:59;7.30;75.70
19214;DHT22;9741;51.020;5.304;2023-12-20T05:02:35;7.30;75.70
19214;DHT22;9741;51.020;5.304;2023-12-20T05:05:11;7.20;75.50
19214;DHT22;9741;51.020;5.304;2023-12-20T05:07:41;7.20;75.50
19214;DHT22;9741;51.020;5.304;2023-12-20T05:10:15;7.10;75.50
19214;DHT22;9741;51.020;5.304;2023-12-20T05:12:45;7.10;75.60
19214;DHT22;9741;51.020;5.304;2023-12-20T05:15:16;7.10;75.70
19214;DHT22;9741;51.020;5.304;2023-12-20T05:17:51;7.10;75.70
19214;DHT22;9741;51.020;5.304;2023-12-20T05:20:19;7.10;75.70
19214;DHT22;9741;51.020;5.304;2023-12-20T05:22:48;7.00;75.50
19214;DHT22;9741;51.020;5.304;2023-12-20T05:25:28;7.00;75.50
19214;DHT22;9741;51.020;5.304;2023-12-20T05:27:58;7.00;75.70
19214;DHT22;9741;51.020;5.304;2023-12-20T05:30:29;6.90;75.80
19214;DHT22;9741;51.020;5.304;2023-12-20T05:33:04;7.00;76.00
19214;DHT22;9741;51.020;5.304;2023-12-20T05:35:41;7.00;76.00
19214;DHT22;9741;51.020;5.304;2023-12-20T05:38:11;7.00;75.90
19214;DHT22;9741;51.020;5.304;2023-12-20T05:40:44;7.00;75.90
19214;DHT22;9741;51.020;5.304;2023-12-20T05:43:12;7.00;75.80
19214;DHT22;9741;51.020;5.304;2023-12-20T05:45:46;6.90;75.60
19214;DHT22;9741;51.020;5.304;2023-12-20T05:48:14;6.90;75.60
19214;DHT22;9741;51.020;5.304;2023-12-20T05:50:45;6.80;75.40
19214;DHT22;9741;51.020;5.304;2023-12-20T05:53:16;6.80;75.40
19214;DHT22;9741;51.020;5.304;2023-12-20T05:55:55;6.70;75.30
19214;DHT22;9741;51.020;5.304;2023-12-20T05:58:24;6.70;75.30
19214;DHT22;9741;51.020;5.304;2023-12-20T06:00:51;6.60;75.20
19214;DHT22;9741;51.020;5.304;2023-12-20T06:03:32;6.50;75.20
19214;DHT22;9741;51.020;5.304;2023-12-20T06:06:06;6.40;75.20
19214;DHT22;9741;51.020;5.304;2023-12-20T06:08:37;6.40;75.20
19214;DHT22;9741;51.020;5.304;2023-12-20T06:11:18;6.30;75.20
19214;DHT22;9741;51.020;5.304;2023-12-20T06:13:49;6.30;75.40
19214;DHT22;9741;51.020;5.304;2023-12-20T06:16:25;6.30;75.70
19214;DHT22;9741;51.020;5.304;2023-12-20T06:18:55;6.30;75.80
19214;DHT22;9741;51.020;5.304;2023-12-20T06:21:30;6.40;75.80
19214;DHT22;9741;51.020;5.304;2023-12-20T06:24:06;6.40;75.90
19214;DHT22;9741;51.020;5.304;2023-12-20T06:26:50;6.40;76.10
19214;DHT22;9741;51.020;5.304;2023-12-20T06:29:21;6.50;76.30
19214;DHT22;9741;51.020;5.304;2023-12-20T06:31:50;6.60;76.50
19214;DHT22;9741;51.020;5.304;2023-12-20T06:34:26;6.70;76.50
19214;DHT22;9741;51.020;5.304;2023-12-20T06:37:07;6.80;76.50
19214;DHT22;9741;51.020;5.304;2023-12-20T06:39:39;6.90;76.50
19214;DHT22;9741;51.020;5.304;2023-12-20T06:42:10;7.00;76.50
19214;DHT22;9741;51.020;5.304;2023-12-20T06:44:46;7.00;76.30
19214;DHT22;9741;51.020;5.304;2023-12-20T06:47:16;7.00;76.10
19214;DHT22;9741;51.020;5.304;2023-12-20T06:49:43;7.10;76.20
19214;DHT22;9741;51.020;5.304;2023-12-20T06:52:14;7.00;76.00
19214;DHT22;9741;51.020;5.304;2023-12-20T06:54:42;7.00;75.80
19214;DHT22;9741;51.020;5.304;2023-12-20T06:57:17;7.00;75.70
19214;DHT22;9741;51.020;5.304;2023-12-20T06:59:51;7.00;75.50
19214;DHT22;9741;51.020;5.304;2023-12-20T07:02:23;6.90;75.40
19214;DHT22;9741;51.020;5.304;2023-12-20T07:04:58;6.80;75.30
19214;DHT22;9741;51.020;5.304;2023-12-20T07:07:28;6.70;75.30
19214;DHT22;9741;51.020;5.304;2023-12-20T07:10:05;6.70;75.30
19214;DHT22;9741;51.020;5.304;2023-12-20T07:12:39;6.60;75.30
19214;DHT22;9741;51.020;5.304;2023-12-20T07:15:11;6.50;75.30
19214;DHT22;9741;51.020;5.304;2023-12-20T07:17:46;6.50;75.40
19214;DHT22;9741;51.020;5.304;2023-12-20T07:20:15;6.40;75.30
19214;DHT22;9741;51.020;5.304;2023-12-20T07:22:51;6.40;75.30
19214;DHT22;9741;51.020;5.304;2023-12-20T07:25:19;6.30;75.30
19214;DHT22;9741;51.020;5.304;2023-12-20T07:27:52;6.30;75.40
19214;DHT22;9741;51.020;5.304;2023-12-20T07:30:21;6.30;75.50
19214;DHT22;9741;51.020;5.304;2023-12-20T07:32:57;6.20;75.50
19214;DHT22;9741;51.020;5.304;2023-12-20T07:35:30;6.20;76.10
19214;DHT22;9741;51.020;5.304;2023-12-20T07:38:06;6.20;75.70
19214;DHT22;9741;51.020;5.304;2023-12-20T07:40:42;6.20;75.70
19214;DHT22;9741;51.020;5.304;2023-12-20T07:43:26;6.20;75.70
19214;DHT22;9741;51.020;5.304;2023-12-20T07:45:57;6.20;75.70
19214;DHT22;9741;51.020;5.304;2023-12-20T07:48:25;6.20;75.80
19214;DHT22;9741;51.020;5.304;2023-12-20T07:50:53;6.20;75.90
19214;DHT22;9741;51.020;5.304;2023-12-20T07:53:24;6.30;76.10
19214;DHT22;9741;51.020;5.304;2023-12-20T07:55:52;6.30;76.10
19214;DHT22;9741;51.020;5.304;2023-12-20T07:58:28;6.30;76.10
19214;DHT22;9741;51.020;5.304;2023-12-20T08:00:58;6.40;76.10
19214;DHT22;9741;51.020;5.304;2023-12-20T08:03:34;6.40;76.10
19214;DHT22;9741;51.020;5.304;2023-12-20T08:06:03;6.40;76.00
19214;DHT22;9741;51.020;5.304;2023-12-20T08:08:34;6.40;75.90
19214;DHT22;9741;51.020;5.304;2023-12-20T08:11:08;6.40;75.90
19214;DHT22;9741;51.020;5.304;2023-12-20T08:13:41;6.40;76.00
19214;DHT22;9741;51.020;5.304;2023-12-20T08:16:11;6.50;76.30
19214;DHT22;9741;51.020;5.304;2023-12-20T08:18:47;6.60;76.60
19214;DHT22;9741;51.020;5.304;2023-12-20T08:21:25;6.70;76.80
19214;DHT22;9741;51.020;5.304;2023-12-20T08:23:56;6.80;76.90
19214;DHT22;9741;51.020;5.304;2023-12-20T08:26:28;6.90;76.80
19214;DHT22;9741;51.020;5.304;2023-12-20T08:29:00;7.00;76.60
19214;DHT22;9741;51.020;5.304;2023-12-20T08:31:30;7.10;76.50
19214;DHT22;9741;51.020;5.304;2023-12-20T08:34:05;7.20;76.40
19214;DHT22;9741;51.020;5.304;2023-12-20T08:36:39;7.30;76.40
19214;DHT22;9741;51.020;5.304;2023-12-20T08:39:10;7.40;76.40
19214;DHT22;9741;51.020;5.304;2023-12-20T08:41:47;7.40;76.30
19214;DHT22;9741;51.020;5.304;2023-12-20T08:44:19;7.50;76.30
19214;DHT22;9741;51.020;5.304;2023-12-20T08:46:49;7.50;76.20
19214;DHT22;9741;51.020;5.304;2023-12-20T08:49:30;7.60;76.20
19214;DHT22;9741;51.020;5.304;2023-12-20T08:51:59;7.70;76.20
19214;DHT22;9741;51.020;5.304;2023-12-20T08:54:36;7.70;76.10
19214;DHT22;9741;51.020;5.304;2023-12-20T08:57:05;7.80;76.10
19214;DHT22;9741;51.020;5.304;2023-12-20T08:59:39;7.70;75.90
19214;DHT22;9741;51.020;5.304;2023-12-20T09:02:07;7.80;75.80
19214;DHT22;9741;51.020;5.304;2023-12-20T09:04:37;7.70;75.60
19214;DHT22;9741;51.020;5.304;2023-12-20T09:07:22;7.70;75.60
19214;DHT22;9741;51.020;5.304;2023-12-20T09:09:55;7.60;75.60
19214;DHT22;9741;51.020;5.304;2023-12-20T09:12:22;7.70;75.70
19214;DHT22;9741;51.020;5.304;2023-12-20T09:15:08;7.70;75.80
19214;DHT22;9741;51.020;5.304;2023-12-20T09:17:52;7.70;75.90
19214;DHT22;9741;51.020;5.304;2023-12-20T09:20:20;7.70;76.10
19214;DHT22;9741;51.020;5.304;2023-12-20T09:23:05;7.90;76.40
19214;DHT22;9741;51.020;5.304;2023-12-20T09:25:34;8.00;76.30
19214;DHT22;9741;51.020;5.304;2023-12-20T09:28:06;8.10;76.10
19214;DHT22;9741;51.020;5.304;2023-12-20T09:30:43;8.10;76.00
19214;DHT22;9741;51.020;5.304;2023-12-20T09:33:16;8.20;76.00
19214;DHT22;9741;51.020;5.304;2023-12-20T09:35:45;8.30;76.00
19214;DHT22;9741;51.020;5.304;2023-12-20T09:38:16;8.40;76.10
19214;DHT22;9741;51.020;5.304;2023-12-20T09:40:52;8.50;75.90
19214;DHT22;9741;51.020;5.304;2023-12-20T09:43:31;8.50;75.70
19214;DHT22;9741;51.020;5.304;2023-12-20T09:46:12;8.60;75.70
19214;DHT22;9741;51.020;5.304;2023-12-20T09:48:49;8.60;75.60
19214;DHT22;9741;51.020;5.304;2023-12-20T09:51:22;8.60;75.40
19214;DHT22;9741;51.020;5.304;2023-12-20T09:53:58;8.70;75.40
19214;DHT22;9741;51.020;5.304;2023-12-20T09:56:29;8.70;75.20
19214;DHT22;9741;51.020;5.304;2023-12-20T09:59:00;8.70;75.20
19214;DHT22;9741;51.020;5.304;2023-12-20T10:01:41;8.80;75.30
19214;DHT22;9741;51.020;5.304;2023-12-20T10:04:10;8.90;75.40
19214;DHT22;9741;51.020;5.304;2023-12-20T10:06:47;9.00;75.30
19214;DHT22;9741;51.020;5.304;2023-12-20T10:09:19;9.10;75.20
19214;DHT22;9741;51.020;5.304;2023-12-20T10:11:46;9.20;75.10
19214;DHT22;9741;51.020;5.304;2023-12-20T10:14:18;9.20;75.00
19214;DHT22;9741;51.020;5.304;2023-12-20T10:16:52;9.30;74.90
19214;DHT22;9741;51.020;5.304;2023-12-20T10:19:23;9.40;74.80
19214;DHT22;9741;51.020;5.304;2023-12-20T10:21:55;9.40;74.70
19214;DHT22;9741;51.020;5.304;2023-12-20T10:24:28;9.50;74.60
19214;DHT22;9741;51.020;5.304;2023-12-20T10:27:05;9.50;74.40
19214;DHT22;9741;51.020;5.304;2023-12-20T10:29:35;9.50;74.40
19214;DHT22;9741;51.020;5.304;2023-12-20T10:32:25;9.50;74.30
19214;DHT22;9741;51.020;5.304;2023-12-20T10:34:54;9.50;74.30
19214;DHT22;9741;51.020;5.304;2023-12-20T10:37:26;9.60;74.40
19214;DHT22;9741;51.020;5.304;2023-12-20T10:39:54;9.60;74.20
19214;DHT22;9741;51.020;5.304;2023-12-20T10:42:28;9.70;74.10
19214;DHT22;9741;51.020;5.304;2023-12-20T10:44:58;9.70;74.00
19214;DHT22;9741;51.020;5.304;2023-12-20T10:47:46;9.70;73.80
19214;DHT22;9741;51.020;5.304;2023-12-20T10:50:17;9.70;73.80
19214;DHT22;9741;51.020;5.304;2023-12-20T10:52:48;9.80;73.70
19214;DHT22;9741;51.020;5.304;2023-12-20T10:55:22;9.80;73.70
19214;DHT22;9741;51.020;5.304;2023-12-20T10:58:08;9.80;73.50
19214;DHT22;9741;51.020;5.304;2023-12-20T11:00:41;9.80;73.40
19214;DHT22;9741;51.020;5.304;2023-12-20T11:03:18;9.80;73.30
19214;DHT22;9741;51.020;5.304;2023-12-20T11:06:03;9.80;73.70
19214;DHT22;9741;51.020;5.304;2023-12-20T11:08:38;9.80;73.20
19214;DHT22;9741;51.020;5.304;2023-12-20T11:11:16;9.80;73.10
19214;DHT22;9741;51.020;5.304;2023-12-20T11:13:58;9.90;73.20
19214;DHT22;9741;51.020;5.304;2023-12-20T11:16:31;9.90;73.20
19214;DHT22;9741;51.020;5.304;2023-12-20T11:19:04;9.90;73.00
19214;DHT22;9741;51.020;5.304;2023-12-20T11:21:35;9.90;72.90
19214;DHT22;9741;51.020;5.304;2023-12-20T11:24:07;10.00;72.00
19214;DHT22;9741;51.020;5.304;2023-12-20T11:26:36;10.00;71.80
19214;DHT22;9741;51.020;5.304;2023-12-20T11:29:31;10.10;71.80
19214;DHT22;9741;51.020;5.304;2023-12-20T11:32:04;10.10;71.60
19214;DHT22;9741;51.020;5.304;2023-12-20T11:35:25;10.00;71.30
19214;DHT22;9741;51.020;5.304;2023-12-20T11:37:55;10.00;71.30
19214;DHT22;9741;51.020;5.304;2023-12-20T11:40:27;9.90;72.20
19214;DHT22;9741;51.020;5.304;2023-12-20T11:43:03;9.90;72.10
19214;DHT22;9741;51.020;5.304;2023-12-20T11:45:50;9.90;72.10
19214;DHT22;9741;51.020;5.304;2023-12-20T11:48:21;9.80;72.00
19214;DHT22;9741;51.020;5.304;2023-12-20T11:50:52;9.80;72.00
19214;DHT22;9741;51.020;5.304;2023-12-20T11:53:27;9.80;72.10
19214;DHT22;9741;51.020;5.304;2023-12-20T11:55:59;9.80;72.10
19214;DHT22;9741;51.020;5.304;2023-12-20T11:58:31;9.80;72.00
19214;DHT22;9741;51.020;5.304;2023-12-20T12:00:59;9.70;71.90
19214;DHT22;9741;51.020;5.304;2023-12-20T12:03:29;9.70;71.90
19214;DHT22;9741;51.020;5.304;2023-12-20T12:06:09;9.70;71.90
19214;DHT22;9741;51.020;5.304;2023-12-20T12:08:39;9.70;72.00
19214;DHT22;9741;51.020;5.304;2023-12-20T12:11:11;9.70;72.00
19214;DHT22;9741;51.020;5.304;2023-12-20T12:13:46;9.70;72.00
19214;DHT22;9741;51.020;5.304;2023-12-20T12:16:17;9.70;72.10
19214;DHT22;9741;51.020;5.304;2023-12-20T12:18:54;9.70;71.90
19214;DHT22;9741;51.020;5.304;2023-12-20T12:21:28;9.70;72.00
19214;DHT22;9741;51.020;5.304;2023-12-20T12:24:07;9.80;72.10
19214;DHT22;9741;51.020;5.304;2023-12-20T12:26:39;9.80;72.00
19214;DHT22;9741;51.020;5.304;2023-12-20T12:29:08;9.70;71.90
19214;DHT22;9741;51.020;5.304;2023-12-20T12:31:41;9.70;72.00
19214;DHT22;9741;51.020;5.304;2023-12-20T12:34:11;9.70;71.90
19214;DHT22;9741;51.020;5.304;2023-12-20T12:36:58;9.70;71.90
19214;DHT22;9741;51.020;5.304;2023-12-20T12:39:27;9.70;72.00
19214;DHT22;9741;51.020;5.304;2023-12-20T12:42:01;9.70;72.10
19214;DHT22;9741;51.020;5.304;2023-12-20T12:44:33;9.80;72.20
19214;DHT22;9741;51.020;5.304;2023-12-20T12:47:03;9.80;72.20
19214;DHT22;9741;51.020;5.304;2023-12-20T12:49:44;9.80;72.20
19214;DHT22;9741;51.020;5.304;2023-12-20T12:52:30;9.90;72.40
19214;DHT22;9741;51.020;5.304;2023-12-20T12:55:03;10.10;71.60
19214;DHT22;9741;51.020;5.304;2023-12-20T12:57:31;10.10;71.50
19214;DHT22;9741;51.020;5.304;2023-12-20T13:00:04;10.30;71.60
19214;DHT22;9741;51.020;5.304;2023-12-20T13:02:35;10.40;71.50
19214;DHT22;9741;51.020;5.304;2023-12-20T13:05:08;10.50;71.50
19214;DHT22;9741;51.020;5.304;2023-12-20T13:07:40;10.50;71.30
19214;DHT22;9741;51.020;5.304;2023-12-20T13:10:16;10.60;71.20
19214;DHT22;9741;51.020;5.304;2023-12-20T13:12:43;10.60;71.00
19214;DHT22;9741;51.020;5.304;2023-12-20T13:15:14;10.60;71.00
19214;DHT22;9741;51.020;5.304;2023-12-20T13:17:46;10.60;71.10
19214;DHT22;9741;51.020;5.304;2023-12-20T13:20:19;10.60;71.10
19214;DHT22;9741;51.020;5.304;2023-12-20T13:22:53;10.60;71.10
19214;DHT22;9741;51.020;5.304;2023-12-20T13:25:30;10.60;71.10
19214;DHT22;9741;51.020;5.304;2023-12-20T13:28:01;10.60;71.20
19214;DHT22;9741;51.020;5.304;2023-12-20T13:30:29;10.60;71.20
19214;DHT22;9741;51.020;5.304;2023-12-20T13:32:59;10.60;71.10
19214;DHT22;9741;51.020;5.304;2023-12-20T13:35:42;10.60;71.00
19214;DHT22;9741;51.020;5.304;2023-12-20T13:38:31;10.50;70.90
19214;DHT22;9741;51.020;5.304;2023-12-20T13:41:07;10.40;70.90
19214;DHT22;9741;51.020;5.304;2023-12-20T13:43:35;10.40;71.00
19214;DHT22;9741;51.020;5.304;2023-12-20T13:46:05;10.40;71.10
19214;DHT22;9741;51.020;5.304;2023-12-20T13:48:36;10.30;71.00
19214;DHT22;9741;51.020;5.304;2023-12-20T13:51:11;10.30;71.10
19214;DHT22;9741;51.020;5.304;2023-12-20T13:53:43;10.30;71.20
19214;DHT22;9741;51.020;5.304;2023-12-20T13:56:15;10.20;71.20
19214;DHT22;9741;51.020;5.304;2023-12-20T13:58:44;10.20;71.20
19214;DHT22;9741;51.020;5.304;2023-12-20T14:01:14;10.20;71.20
19214;DHT22;9741;51.020;5.304;2023-12-20T14:03:40;10.10;71.20
19214;DHT22;9741;51.020;5.304;2023-12-20T14:06:21;10.10;71.20
19214;DHT22;9741;51.020;5.304;2023-12-20T14:08:53;10.10;71.20
19214;DHT22;9741;51.020;5.304;2023-12-20T14:11:20;10.00;71.10
19214;DHT22;9741;51.020;5.304;2023-12-20T14:14:02;10.00;71.20
19214;DHT22;9741;51.020;5.304;2023-12-20T14:16:34;10.00;71.30
19214;DHT22;9741;51.020;5.304;2023-12-20T14:19:02;10.00;71.30
19214;DHT22;9741;51.020;5.304;2023-12-20T14:21:34;10.00;71.30
19214;DHT22;9741;51.020;5.304;2023-12-20T14:24:14;10.00;71.30
19214;DHT22;9741;51.020;5.304;2023-12-20T14:26:45;10.00;71.30
19214;DHT22;9741;51.020;5.304;2023-12-20T14:29:14;10.00;71.40
19214;DHT22;9741;51.020;5.304;2023-12-20T14:31:44;10.00;71.50
19214;DHT22;9741;51.020;5.304;2023-12-20T14:34:24;10.00;71.50
19214;DHT22;9741;51.020;5.304;2023-12-20T14:37:08;10.00;71.40
19214;DHT22;9741;51.020;5.304;2023-12-20T14:39:51;10.00;71.40
19214;DHT22;9741;51.020;5.304;2023-12-20T14:42:22;10.00;71.30
19214;DHT22;9741;51.020;5.304;2023-12-20T14:44:52;10.00;71.40
19214;DHT22;9741;51.020;5.304;2023-12-20T14:47:20;10.00;71.40
19214;DHT22;9741;51.020;5.304;2023-12-20T14:49:53;10.00;71.40
19214;DHT22;9741;51.020;5.304;2023-12-20T14:52:22;10.00;71.40
19214;DHT22;9741;51.020;5.304;2023-12-20T14:55:01;10.00;71.40
19214;DHT22;9741;51.020;5.304;2023-12-20T14:57:32;10.00;71.40
19214;DHT22;9741;51.020;5.304;2023-12-20T15:00:03;10.00;71.50
19214;DHT22;9741;51.020;5.304;2023-12-20T15:02:34;9.90;72.40
19214;DHT22;9741;51.020;5.304;2023-12-20T15:05:09;9.90;72.40
19214;DHT22;9741;51.020;5.304;2023-12-20T15:07:37;9.90;72.40
19214;DHT22;9741;51.020;5.304;2023-12-20T15:10:19;9.90;72.40
19214;DHT22;9741;51.020;5.304;2023-12-20T15:12:51;9.90;72.50
19214;DHT22;9741;51.020;5.304;2023-12-20T15:15:23;9.80;72.40
19214;DHT22;9741;51.020;5.304;2023-12-20T15:18:00;9.80;72.40
19214;DHT22;9741;51.020;5.304;2023-12-20T15:20:30;9.80;72.50
19214;DHT22;9741;51.020;5.304;2023-12-20T15:23:10;9.80;72.60
19214;DHT22;9741;51.020;5.304;2023-12-20T15:25:54;9.80;72.60
19214;DHT22;9741;51.020;5.304;2023-12-20T15:28:25;9.80;72.60
19214;DHT22;9741;51.020;5.304;2023-12-20T15:30:56;9.80;72.70
19214;DHT22;9741;51.020;5.304;2023-12-20T15:33:27;9.80;72.70
19214;DHT22;9741;51.020;5.304;2023-12-20T15:36:05;9.80;72.80
19214;DHT22;9741;51.020;5.304;2023-12-20T15:38:37;9.80;72.70
19214;DHT22;9741;51.020;5.304;2023-12-20T15:41:17;9.80;72.80
19214;DHT22;9741;51.020;5.304;2023-12-20T15:43:48;9.80;72.80
19214;DHT22;9741;51.020;5.304;2023-12-20T15:46:24;9.80;72.80
19214;DHT22;9741;51.020;5.304;2023-12-20T15:48:53;9.80;72.80
19214;DHT22;9741;51.020;5.304;2023-12-20T15:51:23;9.80;72.80
19214;DHT22;9741;51.020;5.304;2023-12-20T15:53:50;9.80;72.80
19214;DHT22;9741;51.020;5.304;2023-12-20T15:56:34;9.80;72.80
19214;DHT22;9741;51.020;5.304;2023-12-20T15:59:12;9.80;72.80
19214;DHT22;9741;51.020;5.304;2023-12-20T16:01:42;9.80;72.70
19214;DHT22;9741;51.020;5.304;2023-12-20T16:04:09;9.80;72.80
19214;DHT22;9741;51.020;5.304;2023-12-20T16:06:40;9.80;72.80
19214;DHT22;9741;51.020;5.304;2023-12-20T16:09:16;9.80;72.80
19214;DHT22;9741;51.020;5.304;2023-12-20T16:11:49;9.80;72.80
19214;DHT22;9741;51.020;5.304;2023-12-20T16:14:26;9.80;72.80
19214;DHT22;9741;51.020;5.304;2023-12-20T16:16:57;9.80;72.80
19214;DHT22;9741;51.020;5.304;2023-12-20T16:19:35;9.80;72.80
19214;DHT22;9741;51.020;5.304;2023-12-20T16:22:10;9.80;72.80
19214;DHT22;9741;51.020;5.304;2023-12-20T16:24:41;9.80;72.80
19214;DHT22;9741;51.020;5.304;2023-12-20T16:27:23;9.80;72.80
19214;DHT22;9741;51.020;5.304;2023-12-20T16:29:56;9.80;72.90
19214;DHT22;9741;51.020;5.304;2023-12-20T16:32:31;9.80;72.90
19214;DHT22;9741;51.020;5.304;2023-12-20T16:35:02;9.80;72.90
19214;DHT22;9741;51.020;5.304;2023-12-20T16:37:37;9.80;72.90